sensor_id;sensor_type;location;lat;lon;timestamp;temperature;humidity
22192;DHT22;11261;52.456;10.850;2023-08-21T00:01:54;22.10;99.90
22192;DHT22;11261;52.456;10.850;2023-08-21T00:04:23;22.20;99.90
22192;DHT22;11261;52.456;10.850;2023-08-21T00:06:51;22.20;99.90
22192;DHT22;11261;52.456;10.850;2023-08-21T00:09:21;22.20;99.90
22192;DHT22;11261;52.456;10.850;2023-08-21T00:11:49;22.00;99.90
22192;DHT22;11261;52.456;10.850;2023-08-21T00:14:18;21.90;99.90
22192;DHT22;11261;52.456;10.850;2023-08-21T00:16:46;22.10;99.90
22192;DHT22;11261;52.456;10.850;2023-08-21T00:19:14;22.10;99.90
22192;DHT22;11261;52.456;10.850;2023-08-21T00:21:43;22.10;99.90
22192;DHT22;11261;52.456;10.850;2023-08-21T00:24:11;22.00;99.90
22192;DHT22;11261;52.456;10.850;2023-08-21T00:26:41;22.10;99.90
22192;DHT22;11261;52.456;10.850;2023-08-21T00:29:09;22.10;99.90
22192;DHT22;11261;52.456;10.850;2023-08-21T00:31:37;22.10;99.90
22192;DHT22;11261;52.456;10.850;2023-08-21T00:34:06;22.00;99.90
22192;DHT22;11261;52.456;10.850;2023-08-21T00:36:34;22.00;99.90
22192;DHT22;11261;52.456;10.850;2023-08-21T00:39:03;21.90;99.90
22192;DHT22;11261;52.456;10.850;2023-08-21T00:41:31;21.90;99.90
22192;DHT22;11261;52.456;10.850;2023-08-21T00:44:02;21.90;99.90
22192;DHT22;11261;52.456;10.850;2023-08-21T00:46:31;21.90;99.90
22192;DHT22;11261;52.456;10.850;2023-08-21T00:49:00;21.80;99.90
22192;DHT22;11261;52.456;10.850;2023-08-21T00:51:29;21.80;99.90
22192;DHT22;11261;52.456;10.850;2023-08-21T00:53:57;21.60;99.90
22192;DHT22;11261;52.456;10.850;2023-08-21T00:56:26;21.60;99.90
22192;DHT22;11261;52.456;10.850;2023-08-21T00:58:54;21.70;99.90
22192;DHT22;11261;52.456;10.850;2023-08-21T01:01:25;21.60;99.90
22192;DHT22;11261;52.456;10.850;2023-08-21T01:03:53;21.60;99.90
22192;DHT22;11261;52.456;10.850;2023-08-21T01:06:22;21.60;99.90
22192;DHT22;11261;52.456;10.850;2023-08-21T01:08:57;21.60;99.90
22192;DHT22;11261;52.456;10.850;2023-08-21T01:11:30;21.50;99.90
22192;DHT22;11261;52.456;10.850;2023-08-21T01:14:06;21.50;99.90
22192;DHT22;11261;52.456;10.850;2023-08-21T01:16:37;21.40;99.90
22192;DHT22;11261;52.456;10.850;2023-08-21T01:19:13;21.40;99.90
22192;DHT22;11261;52.456;10.850;2023-08-21T01:21:44;21.30;99.90
22192;DHT22;11261;52.456;10.850;2023-08-21T01:24:14;21.20;99.90
22192;DHT22;11261;52.456;10.850;2023-08-21T01:26:42;21.10;99.90
22192;DHT22;11261;52.456;10.850;2023-08-21T01:29:10;21.10;99.90
22192;DHT22;11261;52.456;10.850;2023-08-21T01:31:39;21.00;99.90
22192;DHT22;11261;52.456;10.850;2023-08-21T01:34:11;21.00;99.90
22192;DHT22;11261;52.456;10.850;2023-08-21T01:36:43;20.90;99.90
22192;DHT22;11261;52.456;10.850;2023-08-21T01:39:13;20.90;99.90
22192;DHT22;11261;52.456;10.850;2023-08-21T01:41:42;20.90;99.90
22192;DHT22;11261;52.456;10.850;2023-08-21T01:44:10;20.90;99.90
22192;DHT22;11261;52.456;10.850;2023-08-21T01:46:38;20.90;99.90
22192;DHT22;11261;52.456;10.850;2023-08-21T01:49:06;20.80;99.90
22192;DHT22;11261;52.456;10.850;2023-08-21T01:51:35;20.70;99.90
22192;DHT22;11261;52.456;10.850;2023-08-21T01:54:03;20.70;99.90
22192;DHT22;11261;52.456;10.850;2023-08-21T01:56:33;20.70;99.90
22192;DHT22;11261;52.456;10.850;2023-08-21T01:59:02;20.40;99.90
22192;DHT22;11261;52.456;10.850;2023-08-21T02:01:30;20.30;99.90
22192;DHT22;11261;52.456;10.850;2023-08-21T02:03:58;20.30;99.90
22192;DHT22;11261;52.456;10.850;2023-08-21T02:06:27;20.40;99.90
22192;DHT22;11261;52.456;10.850;2023-08-21T02:08:55;20.30;99.90
22192;DHT22;11261;52.456;10.850;2023-08-21T02:11:24;20.30;99.90
22192;DHT22;11261;52.456;10.850;2023-08-21T02:13:53;20.30;99.90
22192;DHT22;11261;52.456;10.850;2023-08-21T02:16:22;20.30;99.90
22192;DHT22;11261;52.456;10.850;2023-08-21T02:18:50;20.30;99.90
22192;DHT22;11261;52.456;10.850;2023-08-21T02:21:18;20.30;99.90
22192;DHT22;11261;52.456;10.850;2023-08-21T02:23:47;20.30;99.90
22192;DHT22;11261;52.456;10.850;2023-08-21T02:26:15;20.20;99.90
22192;DHT22;11261;52.456;10.850;2023-08-21T02:28:43;20.20;99.90
22192;DHT22;11261;52.456;10.850;2023-08-21T02:31:14;20.10;99.90
22192;DHT22;11261;52.456;10.850;2023-08-21T02:33:42;20.00;99.90
22192;DHT22;11261;52.456;10.850;2023-08-21T02:36:11;19.90;99.90
22192;DHT22;11261;52.456;10.850;2023-08-21T02:38:39;19.90;99.90
22192;DHT22;11261;52.456;10.850;2023-08-21T02:41:07;19.90;99.90
22192;DHT22;11261;52.456;10.850;2023-08-21T02:43:35;19.90;99.90
22192;DHT22;11261;52.456;10.850;2023-08-21T02:46:04;19.80;99.90
22192;DHT22;11261;52.456;10.850;2023-08-21T02:48:33;19.70;99.90
22192;DHT22;11261;52.456;10.850;2023-08-21T02:51:02;19.70;99.90
22192;DHT22;11261;52.456;10.850;2023-08-21T02:53:33;19.60;99.90
22192;DHT22;11261;52.456;10.850;2023-08-21T02:56:01;19.60;99.90
22192;DHT22;11261;52.456;10.850;2023-08-21T02:58:29;19.70;99.90
22192;DHT22;11261;52.456;10.850;2023-08-21T03:00:58;19.70;99.90
22192;DHT22;11261;52.456;10.850;2023-08-21T03:03:26;19.60;99.90
22192;DHT22;11261;52.456;10.850;2023-08-21T03:05:56;19.60;99.90
22192;DHT22;11261;52.456;10.850;2023-08-21T03:08:24;19.60;99.90
22192;DHT22;11261;52.456;10.850;2023-08-21T03:10:52;19.50;99.90
22192;DHT22;11261;52.456;10.850;2023-08-21T03:13:20;19.50;99.90
22192;DHT22;11261;52.456;10.850;2023-08-21T03:15:49;19.50;99.90
22192;DHT22;11261;52.456;10.850;2023-08-21T03:18:18;19.40;99.90
22192;DHT22;11261;52.456;10.850;2023-08-21T03:20:47;19.40;99.90
22192;DHT22;11261;52.456;10.850;2023-08-21T03:23:16;19.40;99.90
22192;DHT22;11261;52.456;10.850;2023-08-21T03:25:45;19.40;99.90
22192;DHT22;11261;52.456;10.850;2023-08-21T03:28:13;19.40;99.90
22192;DHT22;11261;52.456;10.850;2023-08-21T03:30:41;19.30;99.90
22192;DHT22;11261;52.456;10.850;2023-08-21T03:33:09;19.30;99.90
22192;DHT22;11261;52.456;10.850;2023-08-21T03:35:38;19.30;99.90
22192;DHT22;11261;52.456;10.850;2023-08-21T03:38:06;19.30;99.90
22192;DHT22;11261;52.456;10.850;2023-08-21T03:40:37;19.20;99.90
22192;DHT22;11261;52.456;10.850;2023-08-21T03:43:06;19.20;99.90
22192;DHT22;11261;52.456;10.850;2023-08-21T03:45:34;19.20;99.90
22192;DHT22;11261;52.456;10.850;2023-08-21T03:48:03;19.10;99.90
22192;DHT22;11261;52.456;10.850;2023-08-21T03:50:32;19.10;99.90
22192;DHT22;11261;52.456;10.850;2023-08-21T03:53:00;19.10;99.90
22192;DHT22;11261;52.456;10.850;2023-08-21T03:55:28;19.10;99.90
22192;DHT22;11261;52.456;10.850;2023-08-21T03:57:57;19.10;99.90
22192;DHT22;11261;52.456;10.850;2023-08-21T04:00:26;19.00;99.90
22192;DHT22;11261;52.456;10.850;2023-08-21T04:02:54;18.90;99.90
22192;DHT22;11261;52.456;10.850;2023-08-21T04:05:23;18.90;99.90
22192;DHT22;11261;52.456;10.850;2023-08-21T04:07:51;18.90;99.90
22192;DHT22;11261;52.456;10.850;2023-08-21T04:10:19;18.90;99.90
22192;DHT22;11261;52.456;10.850;2023-08-21T04:12:48;18.90;99.90
22192;DHT22;11261;52.456;10.850;2023-08-21T04:15:17;18.80;99.90
22192;DHT22;11261;52.456;10.850;2023-08-21T04:17:46;18.80;99.90
22192;DHT22;11261;52.456;10.850;2023-08-21T04:20:14;18.80;99.90
22192;DHT22;11261;52.456;10.850;2023-08-21T04:22:43;18.80;99.90
22192;DHT22;11261;52.456;10.850;2023-08-21T04:25:11;18.80;99.90
22192;DHT22;11261;52.456;10.850;2023-08-21T04:27:39;18.70;99.90
22192;DHT22;11261;52.456;10.850;2023-08-21T04:30:08;18.70;99.90
22192;DHT22;11261;52.456;10.850;2023-08-21T04:32:38;18.80;99.90
22192;DHT22;11261;52.456;10.850;2023-08-21T04:35:08;18.80;99.90
22192;DHT22;11261;52.456;10.850;2023-08-21T04:37:42;18.80;99.90
22192;DHT22;11261;52.456;10.850;2023-08-21T04:40:11;18.90;99.90
22192;DHT22;11261;52.456;10.850;2023-08-21T04:42:40;19.00;99.90
22192;DHT22;11261;52.456;10.850;2023-08-21T04:45:09;19.20;99.90
22192;DHT22;11261;52.456;10.850;2023-08-21T04:47:38;19.30;99.90
22192;DHT22;11261;52.456;10.850;2023-08-21T04:50:07;19.60;99.90
22192;DHT22;11261;52.456;10.850;2023-08-21T04:52:36;19.90;99.90
22192;DHT22;11261;52.456;10.850;2023-08-21T04:55:06;20.10;99.90
22192;DHT22;11261;52.456;10.850;2023-08-21T04:57:35;20.30;99.90
22192;DHT22;11261;52.456;10.850;2023-08-21T05:00:03;20.40;99.90
22192;DHT22;11261;52.456;10.850;2023-08-21T05:02:33;20.80;99.90
22192;DHT22;11261;52.456;10.850;2023-08-21T05:05:03;21.20;99.90
22192;DHT22;11261;52.456;10.850;2023-08-21T05:07:32;21.40;99.90
22192;DHT22;11261;52.456;10.850;2023-08-21T05:10:00;21.70;99.90
22192;DHT22;11261;52.456;10.850;2023-08-21T05:12:29;21.80;99.90
22192;DHT22;11261;52.456;10.850;2023-08-21T05:14:57;21.90;99.90
22192;DHT22;11261;52.456;10.850;2023-08-21T05:17:25;22.20;99.90
22192;DHT22;11261;52.456;10.850;2023-08-21T05:19:54;22.60;99.90
22192;DHT22;11261;52.456;10.850;2023-08-21T05:22:23;22.80;99.90
22192;DHT22;11261;52.456;10.850;2023-08-21T05:24:52;23.10;99.90
22192;DHT22;11261;52.456;10.850;2023-08-21T05:27:20;23.50;99.90
22192;DHT22;11261;52.456;10.850;2023-08-21T05:29:48;23.60;99.90
22192;DHT22;11261;52.456;10.850;2023-08-21T05:32:18;24.00;99.90
22192;DHT22;11261;52.456;10.850;2023-08-21T05:34:47;24.30;99.90
22192;DHT22;11261;52.456;10.850;2023-08-21T05:37:15;24.50;99.90
22192;DHT22;11261;52.456;10.850;2023-08-21T05:39:45;24.40;99.90
22192;DHT22;11261;52.456;10.850;2023-08-21T05:42:13;24.50;99.90
22192;DHT22;11261;52.456;10.850;2023-08-21T05:44:41;25.00;99.90
22192;DHT22;11261;52.456;10.850;2023-08-21T05:47:10;24.50;99.90
22192;DHT22;11261;52.456;10.850;2023-08-21T05:49:38;24.80;99.90
22192;DHT22;11261;52.456;10.850;2023-08-21T05:52:06;24.90;99.90
22192;DHT22;11261;52.456;10.850;2023-08-21T05:54:34;25.30;99.90
22192;DHT22;11261;52.456;10.850;2023-08-21T05:57:04;25.50;99.90
22192;DHT22;11261;52.456;10.850;2023-08-21T05:59:33;25.50;99.90
22192;DHT22;11261;52.456;10.850;2023-08-21T06:02:01;25.60;99.90
22192;DHT22;11261;52.456;10.850;2023-08-21T06:04:30;25.70;99.90
22192;DHT22;11261;52.456;10.850;2023-08-21T06:06:58;25.60;99.90
22192;DHT22;11261;52.456;10.850;2023-08-21T06:09:26;26.20;99.90
22192;DHT22;11261;52.456;10.850;2023-08-21T06:11:56;26.20;99.90
22192;DHT22;11261;52.456;10.850;2023-08-21T06:14:26;26.50;99.90
22192;DHT22;11261;52.456;10.850;2023-08-21T06:16:56;26.50;99.90
22192;DHT22;11261;52.456;10.850;2023-08-21T06:19:26;26.40;99.90
22192;DHT22;11261;52.456;10.850;2023-08-21T06:21:54;27.00;99.90
22192;DHT22;11261;52.456;10.850;2023-08-21T06:24:23;27.20;99.90
22192;DHT22;11261;52.456;10.850;2023-08-21T06:26:52;27.60;99.90
22192;DHT22;11261;52.456;10.850;2023-08-21T06:29:20;26.90;99.90
22192;DHT22;11261;52.456;10.850;2023-08-21T06:31:50;26.60;99.90
22192;DHT22;11261;52.456;10.850;2023-08-21T06:34:18;26.30;99.90
22192;DHT22;11261;52.456;10.850;2023-08-21T06:36:47;26.30;99.90
22192;DHT22;11261;52.456;10.850;2023-08-21T06:39:15;26.10;99.90
22192;DHT22;11261;52.456;10.850;2023-08-21T06:41:43;26.10;99.90
22192;DHT22;11261;52.456;10.850;2023-08-21T06:44:11;26.00;99.90
22192;DHT22;11261;52.456;10.850;2023-08-21T06:46:40;26.70;99.90
22192;DHT22;11261;52.456;10.850;2023-08-21T06:49:10;26.90;99.90
22192;DHT22;11261;52.456;10.850;2023-08-21T06:51:38;27.30;99.90
22192;DHT22;11261;52.456;10.850;2023-08-21T06:54:06;27.90;99.90
22192;DHT22;11261;52.456;10.850;2023-08-21T06:56:34;28.20;99.90
22192;DHT22;11261;52.456;10.850;2023-08-21T06:59:03;28.30;99.90
22192;DHT22;11261;52.456;10.850;2023-08-21T07:01:31;28.00;99.90
22192;DHT22;11261;52.456;10.850;2023-08-21T07:03:59;28.40;99.90
22192;DHT22;11261;52.456;10.850;2023-08-21T07:06:30;28.10;99.90
22192;DHT22;11261;52.456;10.850;2023-08-21T07:08:58;27.80;99.90
22192;DHT22;11261;52.456;10.850;2023-08-21T07:11:27;27.50;99.90
22192;DHT22;11261;52.456;10.850;2023-08-21T07:13:55;27.40;99.90
22192;DHT22;11261;52.456;10.850;2023-08-21T07:16:23;26.50;99.90
22192;DHT22;11261;52.456;10.850;2023-08-21T07:18:53;26.60;99.90
22192;DHT22;11261;52.456;10.850;2023-08-21T07:21:21;26.70;99.90
22192;DHT22;11261;52.456;10.850;2023-08-21T07:24:02;27.20;99.90
22192;DHT22;11261;52.456;10.850;2023-08-21T07:26:31;26.90;99.90
22192;DHT22;11261;52.456;10.850;2023-08-21T07:28:59;26.80;99.90
22192;DHT22;11261;52.456;10.850;2023-08-21T07:31:28;26.70;99.90
22192;DHT22;11261;52.456;10.850;2023-08-21T07:33:56;26.40;99.90
22192;DHT22;11261;52.456;10.850;2023-08-21T07:36:24;25.60;99.90
22192;DHT22;11261;52.456;10.850;2023-08-21T07:38:52;25.20;99.90
22192;DHT22;11261;52.456;10.850;2023-08-21T07:41:22;25.10;99.90
22192;DHT22;11261;52.456;10.850;2023-08-21T07:43:53;25.80;99.90
22192;DHT22;11261;52.456;10.850;2023-08-21T07:46:21;26.70;99.90
22192;DHT22;11261;52.456;10.850;2023-08-21T07:48:52;27.70;99.90
22192;DHT22;11261;52.456;10.850;2023-08-21T07:51:21;28.30;99.90
22192;DHT22;11261;52.456;10.850;2023-08-21T07:53:49;28.50;99.90
22192;DHT22;11261;52.456;10.850;2023-08-21T07:56:18;28.30;99.90
22192;DHT22;11261;52.456;10.850;2023-08-21T07:58:47;27.70;99.90
22192;DHT22;11261;52.456;10.850;2023-08-21T08:01:16;27.60;99.90
22192;DHT22;11261;52.456;10.850;2023-08-21T08:03:44;27.50;99.90
22192;DHT22;11261;52.456;10.850;2023-08-21T08:06:13;27.00;99.90
22192;DHT22;11261;52.456;10.850;2023-08-21T08:08:41;27.20;99.90
22192;DHT22;11261;52.456;10.850;2023-08-21T08:11:10;26.90;99.90
22192;DHT22;11261;52.456;10.850;2023-08-21T08:13:38;26.80;99.90
22192;DHT22;11261;52.456;10.850;2023-08-21T08:16:08;26.80;99.90
22192;DHT22;11261;52.456;10.850;2023-08-21T08:18:36;27.00;99.90
22192;DHT22;11261;52.456;10.850;2023-08-21T08:21:04;26.90;99.90
22192;DHT22;11261;52.456;10.850;2023-08-21T08:23:33;26.70;99.90
22192;DHT22;11261;52.456;10.850;2023-08-21T08:26:01;27.20;99.90
22192;DHT22;11261;52.456;10.850;2023-08-21T08:28:29;27.50;99.90
22192;DHT22;11261;52.456;10.850;2023-08-21T08:30:57;27.10;99.90
22192;DHT22;11261;52.456;10.850;2023-08-21T08:33:27;27.10;99.90
22192;DHT22;11261;52.456;10.850;2023-08-21T08:35:55;26.80;99.90
22192;DHT22;11261;52.456;10.850;2023-08-21T08:38:23;27.10;99.90
22192;DHT22;11261;52.456;10.850;2023-08-21T08:40:54;27.50;99.90
22192;DHT22;11261;52.456;10.850;2023-08-21T08:43:25;27.10;99.90
22192;DHT22;11261;52.456;10.850;2023-08-21T08:45:56;26.80;99.90
22192;DHT22;11261;52.456;10.850;2023-08-21T08:48:27;27.40;99.90
22192;DHT22;11261;52.456;10.850;2023-08-21T08:50:56;27.60;99.90
22192;DHT22;11261;52.456;10.850;2023-08-21T08:53:25;27.00;99.90
22192;DHT22;11261;52.456;10.850;2023-08-21T08:55:55;27.00;99.90
22192;DHT22;11261;52.456;10.850;2023-08-21T08:58:23;26.70;99.90
22192;DHT22;11261;52.456;10.850;2023-08-21T09:00:51;26.50;99.90
22192;DHT22;11261;52.456;10.850;2023-08-21T09:03:20;27.00;99.90
22192;DHT22;11261;52.456;10.850;2023-08-21T09:05:49;26.80;99.90
22192;DHT22;11261;52.456;10.850;2023-08-21T09:08:18;26.70;99.90
22192;DHT22;11261;52.456;10.850;2023-08-21T09:10:47;26.90;99.90
22192;DHT22;11261;52.456;10.850;2023-08-21T09:13:17;27.20;99.90
22192;DHT22;11261;52.456;10.850;2023-08-21T09:15:47;27.00;99.90
22192;DHT22;11261;52.456;10.850;2023-08-21T09:18:16;27.50;99.90
22192;DHT22;11261;52.456;10.850;2023-08-21T09:20:44;27.60;99.90
22192;DHT22;11261;52.456;10.850;2023-08-21T09:23:18;28.30;99.90
22192;DHT22;11261;52.456;10.850;2023-08-21T09:25:49;28.20;99.90
22192;DHT22;11261;52.456;10.850;2023-08-21T09:28:19;28.30;99.90
22192;DHT22;11261;52.456;10.850;2023-08-21T09:30:49;28.00;99.90
22192;DHT22;11261;52.456;10.850;2023-08-21T09:33:19;28.00;99.90
22192;DHT22;11261;52.456;10.850;2023-08-21T09:35:48;28.10;99.90
22192;DHT22;11261;52.456;10.850;2023-08-21T09:38:18;28.50;99.90
22192;DHT22;11261;52.456;10.850;2023-08-21T09:40:51;28.20;99.90
22192;DHT22;11261;52.456;10.850;2023-08-21T09:43:21;28.10;99.90
22192;DHT22;11261;52.456;10.850;2023-08-21T09:45:51;28.40;99.90
22192;DHT22;11261;52.456;10.850;2023-08-21T09:48:22;27.70;99.90
22192;DHT22;11261;52.456;10.850;2023-08-21T09:50:51;28.20;99.90
22192;DHT22;11261;52.456;10.850;2023-08-21T09:53:22;28.40;99.90
22192;DHT22;11261;52.456;10.850;2023-08-21T09:55:53;28.10;99.90
22192;DHT22;11261;52.456;10.850;2023-08-21T09:58:22;27.80;99.90
22192;DHT22;11261;52.456;10.850;2023-08-21T10:00:52;28.60;99.30
22192;DHT22;11261;52.456;10.850;2023-08-21T10:03:24;28.30;99.90
22192;DHT22;11261;52.456;10.850;2023-08-21T10:05:56;28.30;99.90
22192;DHT22;11261;52.456;10.850;2023-08-21T10:08:27;29.20;99.90
22192;DHT22;11261;52.456;10.850;2023-08-21T10:10:57;29.30;99.90
22192;DHT22;11261;52.456;10.850;2023-08-21T10:13:30;30.00;99.90
22192;DHT22;11261;52.456;10.850;2023-08-21T10:15:59;30.30;96.60
22192;DHT22;11261;52.456;10.850;2023-08-21T10:18:31;30.20;99.90
22192;DHT22;11261;52.456;10.850;2023-08-21T10:21:11;30.40;99.30
22192;DHT22;11261;52.456;10.850;2023-08-21T10:23:41;29.80;99.90
22192;DHT22;11261;52.456;10.850;2023-08-21T10:26:12;30.20;97.70
22192;DHT22;11261;52.456;10.850;2023-08-21T10:28:42;30.10;96.70
22192;DHT22;11261;52.456;10.850;2023-08-21T10:31:31;30.10;99.90
22192;DHT22;11261;52.456;10.850;2023-08-21T10:34:00;29.80;99.90
22192;DHT22;11261;52.456;10.850;2023-08-21T10:37:06;30.00;99.50
22192;DHT22;11261;52.456;10.850;2023-08-21T10:39:38;29.60;99.90
22192;DHT22;11261;52.456;10.850;2023-08-21T10:42:10;29.70;99.10
22192;DHT22;11261;52.456;10.850;2023-08-21T10:44:49;29.40;99.70
22192;DHT22;11261;52.456;10.850;2023-08-21T10:47:20;29.70;99.90
22192;DHT22;11261;52.456;10.850;2023-08-21T10:49:52;29.80;99.50
22192;DHT22;11261;52.456;10.850;2023-08-21T10:52:22;29.50;99.40
22192;DHT22;11261;52.456;10.850;2023-08-21T10:54:54;30.00;99.90
22192;DHT22;11261;52.456;10.850;2023-08-21T10:57:23;29.40;97.20
22192;DHT22;11261;52.456;10.850;2023-08-21T10:59:55;29.50;99.90
22192;DHT22;11261;52.456;10.850;2023-08-21T11:02:25;29.80;99.90
22192;DHT22;11261;52.456;10.850;2023-08-21T11:04:54;29.40;98.90
22192;DHT22;11261;52.456;10.850;2023-08-21T11:07:23;28.90;97.80
22192;DHT22;11261;52.456;10.850;2023-08-21T11:09:53;28.70;99.90
22192;DHT22;11261;52.456;10.850;2023-08-21T11:12:22;28.60;98.60
22192;DHT22;11261;52.456;10.850;2023-08-21T11:14:51;28.80;97.80
22192;DHT22;11261;52.456;10.850;2023-08-21T11:17:19;29.10;99.90
22192;DHT22;11261;52.456;10.850;2023-08-21T11:19:50;28.90;97.40
22192;DHT22;11261;52.456;10.850;2023-08-21T11:22:18;29.30;99.90
22192;DHT22;11261;52.456;10.850;2023-08-21T11:24:49;29.00;98.50
22192;DHT22;11261;52.456;10.850;2023-08-21T11:27:19;29.40;99.50
22192;DHT22;11261;52.456;10.850;2023-08-21T11:29:52;29.80;99.40
22192;DHT22;11261;52.456;10.850;2023-08-21T11:32:22;30.00;97.20
22192;DHT22;11261;52.456;10.850;2023-08-21T11:34:51;28.90;97.50
22192;DHT22;11261;52.456;10.850;2023-08-21T11:37:21;27.90;98.80
22192;DHT22;11261;52.456;10.850;2023-08-21T11:39:51;28.10;99.60
22192;DHT22;11261;52.456;10.850;2023-08-21T11:42:29;28.90;99.90
22192;DHT22;11261;52.456;10.850;2023-08-21T11:44:59;29.70;97.50
22192;DHT22;11261;52.456;10.850;2023-08-21T11:47:31;30.00;98.90
22192;DHT22;11261;52.456;10.850;2023-08-21T11:50:02;30.00;95.90
22192;DHT22;11261;52.456;10.850;2023-08-21T11:52:32;30.60;97.80
22192;DHT22;11261;52.456;10.850;2023-08-21T11:55:07;30.60;96.30
22192;DHT22;11261;52.456;10.850;2023-08-21T11:57:47;30.60;96.90
22192;DHT22;11261;52.456;10.850;2023-08-21T12:00:16;30.30;96.20
22192;DHT22;11261;52.456;10.850;2023-08-21T12:02:54;30.10;95.00
22192;DHT22;11261;52.456;10.850;2023-08-21T12:05:23;30.20;96.60
22192;DHT22;11261;52.456;10.850;2023-08-21T12:07:52;30.00;93.80
22192;DHT22;11261;52.456;10.850;2023-08-21T12:10:24;30.70;96.80
22192;DHT22;11261;52.456;10.850;2023-08-21T12:12:55;30.50;93.70
22192;DHT22;11261;52.456;10.850;2023-08-21T12:15:23;30.90;94.90
22192;DHT22;11261;52.456;10.850;2023-08-21T12:17:51;30.60;94.30
22192;DHT22;11261;52.456;10.850;2023-08-21T12:20:20;30.50;93.10
22192;DHT22;11261;52.456;10.850;2023-08-21T12:22:49;30.60;93.20
22192;DHT22;11261;52.456;10.850;2023-08-21T12:25:17;30.40;97.20
22192;DHT22;11261;52.456;10.850;2023-08-21T12:27:46;30.00;94.40
22192;DHT22;11261;52.456;10.850;2023-08-21T12:30:28;30.70;95.30
22192;DHT22;11261;52.456;10.850;2023-08-21T12:32:56;30.30;94.20
22192;DHT22;11261;52.456;10.850;2023-08-21T12:35:42;30.20;96.40
22192;DHT22;11261;52.456;10.850;2023-08-21T12:38:11;30.40;94.50
22192;DHT22;11261;52.456;10.850;2023-08-21T12:40:39;30.70;91.20
22192;DHT22;11261;52.456;10.850;2023-08-21T12:43:07;29.90;94.30
22192;DHT22;11261;52.456;10.850;2023-08-21T12:45:37;30.20;95.50
22192;DHT22;11261;52.456;10.850;2023-08-21T12:48:06;30.50;94.80
22192;DHT22;11261;52.456;10.850;2023-08-21T12:50:34;30.40;93.70
22192;DHT22;11261;52.456;10.850;2023-08-21T12:53:03;30.80;95.80
22192;DHT22;11261;52.456;10.850;2023-08-21T12:55:31;31.00;94.90
22192;DHT22;11261;52.456;10.850;2023-08-21T12:58:00;30.90;94.20
22192;DHT22;11261;52.456;10.850;2023-08-21T13:00:28;30.80;93.00
22192;DHT22;11261;52.456;10.850;2023-08-21T13:02:57;30.50;94.30
22192;DHT22;11261;52.456;10.850;2023-08-21T13:05:26;30.80;94.20
22192;DHT22;11261;52.456;10.850;2023-08-21T13:07:55;31.00;92.70
22192;DHT22;11261;52.456;10.850;2023-08-21T13:10:23;30.90;91.40
22192;DHT22;11261;52.456;10.850;2023-08-21T13:12:51;30.80;93.90
22192;DHT22;11261;52.456;10.850;2023-08-21T13:15:20;30.90;90.70
22192;DHT22;11261;52.456;10.850;2023-08-21T13:17:48;30.90;90.20
22192;DHT22;11261;52.456;10.850;2023-08-21T13:20:18;31.30;91.70
22192;DHT22;11261;52.456;10.850;2023-08-21T13:22:47;30.70;90.70
22192;DHT22;11261;52.456;10.850;2023-08-21T13:25:17;30.40;89.30
22192;DHT22;11261;52.456;10.850;2023-08-21T13:27:46;30.40;90.70
22192;DHT22;11261;52.456;10.850;2023-08-21T13:30:15;30.30;90.90
22192;DHT22;11261;52.456;10.850;2023-08-21T13:32:44;30.40;93.10
22192;DHT22;11261;52.456;10.850;2023-08-21T13:35:12;30.70;93.00
22192;DHT22;11261;52.456;10.850;2023-08-21T13:37:42;31.50;92.60
22192;DHT22;11261;52.456;10.850;2023-08-21T13:40:10;30.40;87.00
22192;DHT22;11261;52.456;10.850;2023-08-21T13:42:41;30.40;88.70
22192;DHT22;11261;52.456;10.850;2023-08-21T13:45:11;30.30;87.10
22192;DHT22;11261;52.456;10.850;2023-08-21T13:47:40;30.40;86.00
22192;DHT22;11261;52.456;10.850;2023-08-21T13:50:10;30.40;87.60
22192;DHT22;11261;52.456;10.850;2023-08-21T13:52:38;30.90;87.60
22192;DHT22;11261;52.456;10.850;2023-08-21T13:55:09;30.80;85.00
22192;DHT22;11261;52.456;10.850;2023-08-21T13:57:38;31.10;86.60
22192;DHT22;11261;52.456;10.850;2023-08-21T14:00:08;30.60;87.20
22192;DHT22;11261;52.456;10.850;2023-08-21T14:02:40;30.30;86.70
22192;DHT22;11261;52.456;10.850;2023-08-21T14:05:09;30.20;85.70
22192;DHT22;11261;52.456;10.850;2023-08-21T14:07:38;30.50;86.20
22192;DHT22;11261;52.456;10.850;2023-08-21T14:10:10;30.70;87.50
22192;DHT22;11261;52.456;10.850;2023-08-21T14:12:40;30.70;88.30
22192;DHT22;11261;52.456;10.850;2023-08-21T14:15:09;30.60;86.70
22192;DHT22;11261;52.456;10.850;2023-08-21T14:17:38;29.20;88.70
22192;DHT22;11261;52.456;10.850;2023-08-21T14:20:07;29.80;89.00
22192;DHT22;11261;52.456;10.850;2023-08-21T14:22:36;30.60;87.80
22192;DHT22;11261;52.456;10.850;2023-08-21T14:25:05;30.20;88.00
22192;DHT22;11261;52.456;10.850;2023-08-21T14:27:35;30.20;87.30
22192;DHT22;11261;52.456;10.850;2023-08-21T14:30:05;30.40;88.40
22192;DHT22;11261;52.456;10.850;2023-08-21T14:32:34;29.70;84.70
22192;DHT22;11261;52.456;10.850;2023-08-21T14:35:05;30.00;88.60
22192;DHT22;11261;52.456;10.850;2023-08-21T14:37:34;29.70;85.00
22192;DHT22;11261;52.456;10.850;2023-08-21T14:40:03;29.60;86.80
22192;DHT22;11261;52.456;10.850;2023-08-21T14:42:36;29.80;88.30
22192;DHT22;11261;52.456;10.850;2023-08-21T14:45:06;29.60;87.90
22192;DHT22;11261;52.456;10.850;2023-08-21T14:47:35;29.40;88.50
22192;DHT22;11261;52.456;10.850;2023-08-21T14:50:05;29.50;88.20
22192;DHT22;11261;52.456;10.850;2023-08-21T14:52:34;29.30;89.50
22192;DHT22;11261;52.456;10.850;2023-08-21T14:55:04;29.60;89.40
22192;DHT22;11261;52.456;10.850;2023-08-21T14:57:32;29.50;88.80
22192;DHT22;11261;52.456;10.850;2023-08-21T15:00:02;29.60;87.40
22192;DHT22;11261;52.456;10.850;2023-08-21T15:02:31;28.80;89.60
22192;DHT22;11261;52.456;10.850;2023-08-21T15:05:02;29.00;90.40
22192;DHT22;11261;52.456;10.850;2023-08-21T15:07:32;28.70;88.30
22192;DHT22;11261;52.456;10.850;2023-08-21T15:10:01;28.70;86.60
22192;DHT22;11261;52.456;10.850;2023-08-21T15:12:29;28.90;87.60
22192;DHT22;11261;52.456;10.850;2023-08-21T15:14:57;28.70;86.70
22192;DHT22;11261;52.456;10.850;2023-08-21T15:17:27;28.80;88.40
22192;DHT22;11261;52.456;10.850;2023-08-21T15:19:55;29.00;90.00
22192;DHT22;11261;52.456;10.850;2023-08-21T15:22:23;28.80;87.70
22192;DHT22;11261;52.456;10.850;2023-08-21T15:24:51;29.10;88.20
22192;DHT22;11261;52.456;10.850;2023-08-21T15:27:20;28.70;90.00
22192;DHT22;11261;52.456;10.850;2023-08-21T15:29:48;29.00;86.60